Time;durP1;ratioP1;P1;durP2;ratioP2;P2;SDS_P1;SDS_P2;PMS_P1;PMS_P2;Temp;Humidity;BMP_temperature;BMP_pressure;BME280_temperature;BME280_humidity;BME280_pressure;Samples;Min_cycle;Max_cycle;Signal;HPM_P1;HPM_P2
2024/02/10 00:00:35;;;;;;;11.60;3.67;;;9.70;99.90;;;8.99;100.00;97861.50;4186102;28;20033;-72
2024/02/10 00:02:36;;;;;;;8.30;2.83;;;9.60;99.90;;;8.90;100.00;97856.50;4187388;28;20063;-72
2024/02/10 00:04:40;;;;;;;8.48;2.80;;;9.60;99.90;;;8.87;100.00;97856.94;4187230;28;20025;-72
2024/02/10 00:06:41;;;;;;;15.05;3.35;;;9.50;99.90;;;8.85;100.00;97861.59;4186165;28;20052;-72
2024/02/10 00:08:43;;;;;;;12.07;2.65;;;9.50;99.90;;;8.81;100.00;97854.38;4186334;28;20032;-72
2024/02/10 00:10:44;;;;;;;19.33;3.80;;;9.50;99.90;;;8.79;100.00;97851.94;4187228;28;20028;-72
2024/02/10 00:12:46;;;;;;;15.68;2.75;;;9.50;99.90;;;8.78;100.00;97850.34;4185964;28;20033;-72
2024/02/10 00:14:47;;;;;;;12.80;3.55;;;9.50;99.90;;;8.77;100.00;97854.00;4185819;28;20033;-72
2024/02/10 00:16:48;;;;;;;15.45;3.42;;;9.50;99.90;;;8.79;100.00;97857.22;4186011;28;20508;-72
2024/02/10 00:18:49;;;;;;;13.35;2.67;;;9.40;99.90;;;8.81;100.00;97857.00;4187067;28;20021;-72
2024/02/10 00:20:52;;;;;;;18.75;3.53;;;9.50;99.90;;;8.81;100.00;97857.78;4169168;28;20026;-72
2024/02/10 00:22:53;;;;;;;21.37;3.80;;;9.50;99.90;;;8.80;100.00;97848.31;4185239;28;20054;-72
2024/02/10 00:24:56;;;;;;;17.60;4.53;;;9.40;99.90;;;8.81;100.00;97860.41;4186817;28;20259;-72
2024/02/10 00:27:01;;;;;;;14.15;3.97;;;9.50;99.90;;;8.78;100.00;97860.84;4187034;28;20546;-72
2024/02/10 00:29:02;;;;;;;17.92;3.42;;;9.40;99.90;;;8.82;100.00;97863.84;4186967;28;20057;-72
2024/02/10 00:31:03;;;;;;;16.23;2.83;;;9.50;99.90;;;8.82;100.00;97862.03;4186863;28;20021;-72
2024/02/10 00:33:07;;;;;;;19.20;3.42;;;9.50;99.90;;;8.83;100.00;97858.41;4186991;28;20033;-72
2024/02/10 00:35:08;;;;;;;18.42;3.58;;;9.50;99.90;;;8.82;100.00;97856.78;4186791;28;20036;-72
2024/02/10 00:37:10;;;;;;;14.07;3.17;;;9.50;99.90;;;8.82;100.00;97861.22;4186739;28;20017;-72
2024/02/10 00:39:12;;;;;;;13.40;3.22;;;9.50;99.90;;;8.80;100.00;97858.03;4185657;28;20040;-72
2024/02/10 00:41:13;;;;;;;18.67;3.40;;;9.50;99.90;;;8.81;100.00;97857.78;4185702;28;20017;-72
2024/02/10 00:43:14;;;;;;;12.68;3.47;;;9.50;99.90;;;8.80;100.00;97853.56;4185599;28;20017;-72
2024/02/10 00:45:15;;;;;;;12.10;2.75;;;9.50;99.90;;;8.79;100.00;97859.84;4186339;28;20028;-72
2024/02/10 00:47:16;;;;;;;9.85;2.55;;;9.50;99.90;;;8.79;100.00;97851.94;4186799;28;20029;-72
2024/02/10 00:49:17;;;;;;;10.35;3.10;;;9.40;99.90;;;8.77;100.00;97848.75;4185119;28;20067;-72
2024/02/10 00:51:18;;;;;;;18.05;3.88;;;9.40;99.90;;;8.78;100.00;97855.59;4186524;28;20082;-72
2024/02/10 00:53:21;;;;;;;9.70;3.33;;;9.40;99.90;;;8.77;100.00;97840.88;4186482;28;20052;-72
2024/02/10 00:55:25;;;;;;;11.27;3.58;;;9.40;99.90;;;8.79;100.00;97845.88;4186768;28;20056;-72
2024/02/10 00:57:28;;;;;;;16.15;3.33;;;9.40;99.90;;;8.78;100.00;97850.34;4185393;28;20033;-72
2024/02/10 00:59:31;;;;;;;21.58;3.08;;;9.40;99.90;;;8.78;100.00;97852.97;4185214;28;20092;-72
2024/02/10 01:01:32;;;;;;;5.70;2.65;;;9.40;99.90;;;8.75;100.00;97853.41;4186400;28;20057;-72
2024/02/10 01:03:35;;;;;;;9.95;3.20;;;9.40;99.90;;;8.75;100.00;97853.41;4186648;28;20081;-72
2024/02/10 01:05:39;;;;;;;7.90;2.63;;;9.40;99.90;;;8.72;100.00;97861.72;4186643;28;20037;-72
2024/02/10 01:07:40;;;;;;;4.32;2.30;;;9.30;99.90;;;8.69;100.00;97856.09;4186535;28;20480;-72
2024/02/10 01:09:49;;;;;;;16.08;3.00;;;9.30;99.90;;;8.65;100.00;97857.53;4185602;28;20033;-72
2024/02/10 01:11:49;;;;;;;10.52;2.88;;;9.30;99.90;;;8.62;100.00;97860.59;4178976;28;20026;-72
2024/02/10 01:13:50;;;;;;;6.53;2.20;;;9.30;99.90;;;8.59;100.00;97876.78;4169854;28;20140;-72
2024/02/10 01:15:54;;;;;;;12.23;2.88;;;9.20;99.90;;;8.58;100.00;97859.41;4185353;28;20060;-72
2024/02/10 01:17:56;;;;;;;10.50;3.30;;;9.20;99.90;;;8.57;100.00;97861.22;4184829;28;20071;-72
2024/02/10 01:19:57;;;;;;;9.65;2.85;;;9.20;99.90;;;8.58;100.00;97860.19;4185982;28;20035;-72
2024/02/10 01:21:58;;;;;;;7.30;2.95;;;9.20;99.90;;;8.57;100.00;97853.31;4186146;28;20036;-72
2024/02/10 01:24:00;;;;;;;12.75;3.17;;;9.20;99.90;;;8.53;100.00;97846.09;4186133;28;20025;-72
2024/02/10 01:26:01;;;;;;;4.68;2.45;;;9.20;99.90;;;8.54;100.00;97856.38;4184923;28;20029;-72
2024/02/10 01:28:02;;;;;;;10.80;3.53;;;9.20;99.90;;;8.52;100.00;97855.81;4186209;28;20052;-72
2024/02/10 01:30:04;;;;;;;11.05;2.75;;;9.20;99.90;;;8.54;100.00;97866.13;4185884;28;20029;-72
2024/02/10 01:32:05;;;;;;;17.02;3.38;;;9.20;99.90;;;8.52;100.00;97861.06;4184718;28;20044;-72
2024/02/10 01:34:06;;;;;;;8.65;3.03;;;9.20;99.90;;;8.56;100.00;97858.81;4185855;28;20032;-72
2024/02/10 01:36:09;;;;;;;8.30;3.20;;;9.20;99.90;;;8.60;100.00;97866.03;4184034;28;20028;-72
2024/02/10 01:38:09;;;;;;;14.13;3.35;;;9.20;99.90;;;8.69;100.00;97862.13;4184827;28;20049;-72
2024/02/10 01:40:11;;;;;;;19.30;4.50;;;9.30;99.90;;;8.82;100.00;97869.13;4185793;28;20102;-72
2024/02/10 01:42:19;;;;;;;13.15;3.60;;;9.40;99.90;;;8.89;100.00;97864.63;4167969;28;20109;-72
2024/02/10 01:44:20;;;;;;;13.82;4.18;;;9.50;99.90;;;8.94;100.00;97870.03;4184701;28;20124;-72
2024/02/10 01:46:23;;;;;;;15.68;4.57;;;9.50;99.90;;;8.97;100.00;97859.06;4184395;28;20472;-72
2024/02/10 01:48:24;;;;;;;15.85;3.60;;;9.60;99.90;;;9.02;100.00;97858.44;4184371;28;20049;-72
2024/02/10 01:50:25;;;;;;;26.80;4.47;;;9.70;99.90;;;9.11;100.00;97860.56;4184592;28;20063;-72
2024/02/10 01:52:26;;;;;;;11.73;3.25;;;9.70;99.90;;;9.17;100.00;97858.91;4184708;28;20028;-72
2024/02/10 01:54:27;;;;;;;10.80;3.42;;;9.70;99.90;;;9.20;100.00;97858.47;4175450;28;20083;-72
2024/02/10 01:56:29;;;;;;;10.73;3.53;;;9.80;99.90;;;9.22;100.00;97853.78;4168946;28;20057;-72
2024/02/10 01:58:33;;;;;;;17.52;3.63;;;9.80;99.90;;;9.25;100.00;97861.25;4151748;28;20029;-72
2024/02/10 02:00:34;;;;;;;20.92;3.85;;;9.80;99.90;;;9.27;100.00;97860.00;4164092;28;20034;-72
2024/02/10 02:02:35;;;;;;;16.35;3.63;;;9.90;99.90;;;9.28;100.00;97861.63;4184604;28;20153;-72
2024/02/10 02:04:36;;;;;;;10.93;4.03;;;9.90;99.90;;;9.31;100.00;97865.66;4184234;28;20082;-72
2024/02/10 02:06:37;;;;;;;12.38;3.70;;;9.90;99.90;;;9.31;100.00;97868.28;4184374;28;20021;-72
2024/02/10 02:08:39;;;;;;;13.95;3.88;;;9.90;99.90;;;9.31;100.00;97876.16;4184320;28;20063;-72
2024/02/10 02:10:40;;;;;;;14.05;3.63;;;9.90;99.90;;;9.30;100.00;97877.97;4167560;28;20481;-72
2024/02/10 02:12:49;;;;;;;11.85;3.63;;;9.90;99.90;;;9.31;100.00;97881.44;4185434;28;20037;-72
2024/02/10 02:14:50;;;;;;;16.55;4.05;;;9.90;99.90;;;9.32;100.00;97893.53;4167415;28;20576;-72
2024/02/10 02:16:51;;;;;;;14.30;3.80;;;9.90;99.90;;;9.31;100.00;97894.56;4185092;28;20029;-72
2024/02/10 02:18:52;;;;;;;13.73;3.30;;;9.90;99.90;;;9.32;100.00;97893.53;4185353;28;20017;-72
2024/02/10 02:20:53;;;;;;;10.57;3.53;;;9.90;99.90;;;9.32;100.00;97899.59;4166825;28;20025;-72
2024/02/10 02:22:53;;;;;;;14.73;3.38;;;10.00;99.90;;;9.31;100.00;97900.66;4184234;28;20025;-72
2024/02/10 02:24:54;;;;;;;11.30;2.60;;;10.00;99.90;;;9.33;100.00;97895.16;4185418;28;20036;-72
2024/02/10 02:26:59;;;;;;;7.47;1.88;;;10.00;99.90;;;9.40;100.00;97911.69;4185235;28;20490;-72
2024/02/10 02:29:00;;;;;;;9.15;2.00;;;10.00;99.90;;;9.42;100.00;97920.16;4185285;28;20071;-72
2024/02/10 02:31:03;;;;;;;8.75;2.00;;;10.10;99.90;;;9.41;100.00;97926.44;4185027;28;20033;-72
2024/02/10 02:33:04;;;;;;;8.52;1.60;;;10.00;99.90;;;9.38;100.00;97922.41;4184120;28;20024;-72
2024/02/10 02:35:09;;;;;;;3.72;1.33;;;10.10;99.90;;;9.40;100.00;97922.22;4184028;28;20246;-71
2024/02/10 02:37:10;;;;;;;9.32;1.63;;;10.10;99.90;;;9.39;100.00;97921.41;4183897;28;20061;-72
2024/02/10 02:39:11;;;;;;;7.05;1.50;;;10.10;99.90;;;9.35;100.00;97929.94;4185145;28;20048;-72
2024/02/10 02:41:13;;;;;;;3.03;1.00;;;10.00;99.90;;;9.28;100.00;97939.72;4185270;28;20025;-72
2024/02/10 02:43:14;;;;;;;8.70;1.00;;;10.00;99.90;;;9.32;100.00;97933.00;4184016;28;20024;-72
2024/02/10 02:45:15;;;;;;;3.35;0.90;;;10.00;99.90;;;9.30;100.00;97937.69;4183164;28;20033;-72
2024/02/10 02:47:16;;;;;;;5.53;0.90;;;9.90;99.90;;;9.27;100.00;97946.00;4186167;28;20040;-72
2024/02/10 02:49:17;;;;;;;12.95;1.35;;;9.90;99.90;;;9.23;100.00;97947.44;4188365;28;20052;-72
2024/02/10 02:51:20;;;;;;;2.33;0.70;;;9.90;99.90;;;9.19;100.00;97947.09;4187365;28;20033;-72
2024/02/10 02:53:25;;;;;;;5.22;0.80;;;9.90;99.90;;;9.14;100.00;97938.25;4187260;28;20455;-72
2024/02/10 02:55:27;;;;;;;8.05;0.70;;;9.80;99.90;;;9.18;100.00;97945.47;4187374;28;20408;-73
2024/02/10 02:57:31;;;;;;;5.95;0.98;;;9.80;99.90;;;9.14;100.00;97944.28;4188459;28;20032;-72
2024/02/10 02:59:32;;;;;;;8.38;1.10;;;9.80;99.90;;;9.07;100.00;97954.06;4187045;28;20025;-72
2024/02/10 03:01:33;;;;;;;4.90;0.90;;;9.80;99.90;;;8.98;100.00;97950.09;4187010;28;20094;-72
2024/02/10 03:03:34;;;;;;;4.93;0.38;;;9.70;99.90;;;9.05;100.00;97955.31;4188537;28;20018;-72
2024/02/10 03:05:35;;;;;;;5.10;1.05;;;9.70;99.90;;;9.03;100.00;97958.13;4187213;28;20040;-72
2024/02/10 03:07:44;;;;;;;8.75;1.23;;;9.70;99.90;;;8.93;100.00;97960.41;4186949;28;20037;-72
2024/02/10 03:09:45;;;;;;;4.43;1.00;;;9.70;99.90;;;8.93;100.00;97955.16;4186507;28;20099;-72
2024/02/10 03:11:49;;;;;;;6.72;0.90;;;9.70;99.90;;;8.96;100.00;97959.22;4188262;28;20025;-72
2024/02/10 03:13:50;;;;;;;4.53;0.82;;;9.70;99.90;;;8.90;100.00;97958.22;4188374;28;20373;-72
2024/02/10 03:15:51;;;;;;;4.47;0.85;;;9.60;99.90;;;8.88;100.00;97955.81;4186395;28;20127;-72
2024/02/10 03:17:53;;;;;;;8.50;0.88;;;9.60;99.90;;;8.88;100.00;97958.44;4170218;28;20544;-72
2024/02/10 03:19:56;;;;;;;6.10;0.90;;;9.60;99.90;;;8.89;100.00;97954.00;4186974;28;20515;-72
2024/02/10 03:22:00;;;;;;;7.75;1.27;;;9.60;99.90;;;8.90;100.00;97960.84;4186933;28;20390;-72
2024/02/10 03:24:03;;;;;;;8.18;1.33;;;9.60;99.90;;;8.87;100.00;97954.19;4188079;28;20075;-72
2024/02/10 03:26:05;;;;;;;13.32;1.75;;;9.60;99.90;;;8.88;100.00;97955.81;4186661;28;20028;-72
2024/02/10 03:28:05;;;;;;;5.78;1.25;;;9.60;99.90;;;8.84;100.00;97957.25;4187042;28;20538;-72
2024/02/10 03:30:09;;;;;;;6.22;0.93;;;9.60;99.90;;;8.81;100.00;97962.16;4186229;28;20033;-72
2024/02/10 03:32:09;;;;;;;6.75;1.10;;;9.60;99.90;;;8.86;100.00;97960.50;4186762;28;20456;-72
2024/02/10 03:34:10;;;;;;;2.05;1.05;;;9.60;99.90;;;8.84;100.00;97956.47;4187749;28;20029;-72
2024/02/10 03:36:11;;;;;;;6.60;1.35;;;9.60;99.90;;;8.79;100.00;97956.28;4187896;28;20025;-72
2024/02/10 03:38:12;;;;;;;6.72;1.35;;;9.50;99.90;;;8.77;100.00;97960.94;4187873;28;20450;-72
2024/02/10 03:40:18;;;;;;;6.45;1.08;;;9.50;99.90;;;8.73;100.00;97957.94;4186559;28;20028;-72
2024/02/10 03:42:19;;;;;;;10.07;1.00;;;9.50;99.90;;;8.69;100.00;97956.72;4173766;28;20021;-72
2024/02/10 03:44:22;;;;;;;4.07;0.82;;;9.40;99.90;;;8.71;100.00;97967.88;4180221;28;20392;-72
2024/02/10 03:46:23;;;;;;;13.52;1.92;;;9.40;99.90;;;8.69;100.00;97966.47;4184523;28;20028;-72
2024/02/10 03:48:24;;;;;;;9.77;1.58;;;9.40;99.90;;;8.66;100.00;97965.03;4187570;28;20463;-72
2024/02/10 03:50:25;;;;;;;5.35;1.38;;;9.40;99.90;;;8.68;100.00;97962.22;4186477;28;20033;-72
2024/02/10 03:52:26;;;;;;;6.30;0.88;;;9.40;99.90;;;8.63;100.00;97959.44;4186629;28;20029;-72
2024/02/10 03:54:27;;;;;;;9.88;0.93;;;9.30;99.90;;;8.61;100.00;97964.88;4186410;28;20033;-72
2024/02/10 03:56:28;;;;;;;7.78;1.60;;;9.30;99.90;;;8.59;100.00;97971.38;4187452;28;20424;-72
2024/02/10 03:58:29;;;;;;;6.93;1.40;;;9.30;99.90;;;8.56;100.00;97962.09;4186714;28;20033;-72
2024/02/10 04:00:31;;;;;;;5.40;0.90;;;9.30;99.90;;;8.50;100.00;97962.94;4187412;28;20514;-72
2024/02/10 04:02:33;;;;;;;11.50;1.15;;;9.20;99.90;;;8.49;100.00;97966.56;4186318;28;20020;-72
2024/02/10 04:04:36;;;;;;;7.05;0.93;;;9.20;99.90;;;8.46;100.00;97961.72;4187348;28;20017;-72
2024/02/10 04:06:39;;;;;;;5.03;0.90;;;9.20;99.90;;;8.44;100.00;97969.03;4186378;28;20032;-72
2024/02/10 04:08:40;;;;;;;6.07;0.93;;;9.10;99.90;;;8.45;100.00;97965.38;4186316;28;20091;-72
2024/02/10 04:10:41;;;;;;;4.28;1.33;;;9.10;99.90;;;8.45;100.00;97969.84;4187218;28;20025;-72
2024/02/10 04:12:42;;;;;;;5.13;1.33;;;9.10;99.90;;;8.45;100.00;97969.84;4187264;28;20116;-72
2024/02/10 04:14:44;;;;;;;7.97;1.10;;;9.10;99.90;;;8.45;100.00;97970.66;4186966;28;20492;-72
2024/02/10 04:16:46;;;;;;;17.35;2.72;;;9.10;99.90;;;8.44;100.00;97969.03;4185823;28;20033;-72
2024/02/10 04:18:49;;;;;;;9.18;1.48;;;9.10;99.90;;;8.43;100.00;97963.97;4187185;28;20021;-72
2024/02/10 04:20:50;;;;;;;8.70;1.10;;;9.10;99.90;;;8.38;100.00;97975.13;4186895;28;20079;-72
2024/02/10 04:22:50;;;;;;;6.93;1.20;;;9.00;99.90;;;8.36;100.00;97976.34;4185565;28;20512;-72
2024/02/10 04:24:53;;;;;;;10.13;1.77;;;9.00;99.90;;;8.32;100.00;97982.00;4186019;28;20025;-72
2024/02/10 04:26:54;;;;;;;6.97;1.17;;;9.00;99.90;;;8.29;100.00;97976.38;4169347;28;20036;-72
2024/02/10 04:28:54;;;;;;;13.90;1.80;;;9.00;99.90;;;8.30;100.00;97983.25;4185831;28;20143;-72
2024/02/10 04:30:56;;;;;;;8.27;1.63;;;9.00;99.90;;;8.27;100.00;97989.69;4186622;28;20037;-72
2024/02/10 04:32:57;;;;;;;8.18;1.63;;;9.00;99.90;;;8.25;100.00;97996.13;4187033;28;20413;-72
2024/02/10 04:34:58;;;;;;;5.97;1.42;;;8.90;99.90;;;8.23;100.00;97998.16;4186894;28;20028;-72
2024/02/10 04:36:58;;;;;;;6.85;1.33;;;8.90;99.90;;;8.21;100.00;98001.00;4185619;28;20031;-72
2024/02/10 04:39:03;;;;;;;11.57;1.60;;;8.90;99.90;;;8.19;100.00;97994.34;4186891;28;20013;-72
2024/02/10 04:41:04;;;;;;;15.23;1.65;;;8.90;99.90;;;8.18;100.00;98006.66;4185595;28;20579;-72
2024/02/10 04:43:05;;;;;;;12.68;2.15;;;8.90;99.90;;;8.17;100.00;98014.75;4185702;28;20508;-72
2024/02/10 04:45:06;;;;;;;8.85;1.10;;;8.80;99.90;;;8.15;100.00;98014.94;4186438;28;20037;-72
2024/02/10 04:47:09;;;;;;;10.35;1.50;;;8.80;99.90;;;8.13;100.00;98013.53;4185267;28;20033;-72
2024/02/10 04:49:12;;;;;;;13.90;2.05;;;8.80;99.90;;;8.04;100.00;98007.72;4185399;28;20129;-72
2024/02/10 04:51:14;;;;;;;8.20;2.40;;;8.80;99.90;;;8.07;100.00;98014.38;4185420;28;20025;-72
2024/02/10 04:53:16;;;;;;;6.20;1.63;;;8.80;99.90;;;8.07;100.00;98017.00;4185339;28;20029;-72
2024/02/10 04:55:19;;;;;;;12.30;1.63;;;8.80;99.90;;;8.06;100.00;98024.09;4185515;28;20512;-72
2024/02/10 04:57:28;;;;;;;12.27;2.15;;;8.70;99.90;;;8.05;100.00;98026.91;4186628;28;20451;-72
2024/02/10 04:59:28;;;;;;;8.70;1.70;;;8.70;99.90;;;8.01;100.00;98026.50;4169421;28;20056;-72
2024/02/10 05:01:33;;;;;;;9.07;1.13;;;8.70;99.90;;;7.98;100.00;98023.47;4186221;28;20025;-72
2024/02/10 05:03:35;;;;;;;;;;;8.70;99.90;;;7.95;100.00;98026.50;4185852;28;20582;-72
2024/02/10 05:05:35;;;;;;;9.68;2.08;;;8.70;99.90;;;7.94;100.00;98022.28;4186561;28;20050;-72
2024/02/10 05:07:47;;;;;;;18.17;1.90;;;8.60;99.90;;;7.90;100.00;98023.72;4168578;28;20456;-72
2024/02/10 05:09:49;;;;;;;8.27;1.30;;;8.60;99.90;;;7.91;100.00;98028.78;4184442;28;20025;-72
2024/02/10 05:11:50;;;;;;;11.82;1.77;;;8.60;99.90;;;7.87;100.00;98026.75;4186581;28;20025;-72
2024/02/10 05:13:50;;;;;;;10.55;3.20;;;8.60;99.90;;;7.87;100.00;98034.63;4185326;28;20017;-72
2024/02/10 05:15:53;;;;;;;5.47;1.50;;;8.50;99.90;;;7.82;100.00;98043.13;4186061;28;20033;-72
2024/02/10 05:17:54;;;;;;;11.23;1.83;;;8.50;99.90;;;7.79;100.00;98039.06;4186300;28;20551;-72
2024/02/10 05:19:55;;;;;;;18.60;2.33;;;8.50;99.90;;;7.78;100.00;98032.22;4183279;28;20023;-72
2024/02/10 05:21:56;;;;;;;9.20;2.13;;;8.40;99.90;;;7.76;100.00;98028.19;4186378;28;20029;-72
2024/02/10 05:23:59;;;;;;;11.68;2.85;;;8.40;99.90;;;7.73;100.00;98023.34;4186201;28;20023;-72
2024/02/10 05:26:00;;;;;;;13.45;2.05;;;8.40;99.90;;;7.75;100.00;98029.19;4185032;28;20040;-72
2024/02/10 05:28:01;;;;;;;14.07;1.85;;;8.40;99.90;;;7.74;100.00;98024.94;4184973;28;20535;-72
2024/02/10 05:30:02;;;;;;;8.68;1.60;;;8.40;99.90;;;7.73;100.00;98031.22;4185900;28;20460;-72
2024/02/10 05:32:05;;;;;;;8.38;1.63;;;8.40;99.90;;;7.70;100.00;98032.44;4185957;28;20025;-72
2024/02/10 05:34:10;;;;;;;14.00;1.98;;;8.40;99.90;;;7.65;100.00;98026.97;4184632;28;20033;-72
2024/02/10 05:36:10;;;;;;;7.38;1.33;;;8.30;99.90;;;7.69;100.00;98037.88;4184916;28;20064;-72
2024/02/10 05:38:12;;;;;;;10.23;1.50;;;8.40;99.90;;;7.67;100.00;98024.16;4186015;28;20025;-72
2024/02/10 05:40:14;;;;;;;8.85;1.40;;;8.30;99.90;;;7.68;100.00;98036.25;4184785;28;20444;-72
2024/02/10 05:42:15;;;;;;;9.32;1.38;;;8.30;99.90;;;7.66;100.00;98030.41;4185773;28;20025;-72
2024/02/10 05:44:16;;;;;;;14.77;2.38;;;8.30;99.90;;;7.65;100.00;98034.84;4185814;28;20033;-72
2024/02/10 05:46:16;;;;;;;8.07;1.60;;;8.30;99.90;;;7.64;100.00;98035.06;4185871;28;20029;-72
2024/02/10 05:48:29;;;;;;;10.02;1.80;;;8.30;99.90;;;7.62;100.00;98032.63;4185767;28;20059;-72
2024/02/10 05:50:32;;;;;;;16.08;2.83;;;8.30;99.90;;;7.55;100.00;98036.28;4185729;28;20049;-72
2024/02/10 05:52:34;;;;;;;7.28;1.40;;;8.20;99.90;;;7.56;100.00;98045.75;4185858;28;20025;-72
2024/02/10 05:54:36;;;;;;;7.93;1.48;;;8.20;99.90;;;7.54;100.00;98051.19;4184536;28;20053;-72
2024/02/10 05:56:38;;;;;;;6.57;1.10;;;8.20;99.90;;;7.52;100.00;98053.22;4185566;28;20120;-72
2024/02/10 05:58:39;;;;;;;10.35;1.60;;;8.20;99.90;;;7.50;100.00;98063.09;4184430;28;20021;-72
2024/02/10 06:00:43;;;;;;;10.18;1.63;;;8.20;99.90;;;7.48;100.00;98054.63;4184175;28;20031;-72
2024/02/10 06:02:44;;;;;;;10.25;1.70;;;8.20;99.90;;;7.46;100.00;98064.53;4185603;28;20039;-72
2024/02/10 06:04:44;;;;;;;11.25;1.83;;;8.20;99.90;;;7.40;100.00;98056.66;4185493;28;20401;-72
2024/02/10 06:06:47;;;;;;;10.80;1.70;;;8.10;99.90;;;7.38;100.00;98046.34;4167844;28;20034;-72
2024/02/10 06:08:48;;;;;;;7.78;1.65;;;8.10;99.90;;;7.41;100.00;98053.81;4184319;28;20037;-72
2024/02/10 06:10:50;;;;;;;9.18;2.20;;;8.10;99.90;;;7.37;100.00;98054.44;4185478;28;20028;-72
2024/02/10 06:12:53;;;;;;;14.95;3.08;;;8.10;99.90;;;7.37;100.00;98055.25;4184308;28;20037;-72
2024/02/10 06:14:54;;;;;;;9.27;1.92;;;8.00;99.90;;;7.36;100.00;98058.84;4185183;28;20087;-72
2024/02/10 06:16:55;;;;;;;9.25;2.53;;;8.00;99.90;;;7.33;100.00;98050.59;4184999;28;20476;-72
2024/02/10 06:18:59;;;;;;;8.85;1.52;;;8.00;99.90;;;7.32;100.00;98060.25;4184309;28;20516;-72
2024/02/10 06:21:00;;;;;;;12.90;2.30;;;8.00;99.90;;;7.33;100.00;98055.81;4184824;28;20053;-72
2024/02/10 06:23:01;;;;;;;12.20;1.90;;;8.00;99.90;;;7.31;100.00;98058.66;4185244;28;20064;-72
2024/02/10 06:25:02;;;;;;;7.95;2.15;;;8.00;99.90;;;7.31;100.00;98068.34;4185362;28;20020;-72
2024/02/10 06:27:03;;;;;;;5.18;2.97;;;8.00;99.90;;;7.26;100.00;98049.78;4185268;28;20393;-72
2024/02/10 06:29:05;;;;;;;9.73;1.70;;;8.00;99.90;;;7.27;100.00;98061.88;4183989;28;20120;-72
2024/02/10 06:31:10;;;;;;;9.80;2.38;;;7.90;99.90;;;7.24;100.00;98055.22;4183722;28;20029;-72
2024/02/10 06:33:11;;;;;;;9.35;1.88;;;7.90;99.90;;;7.23;100.00;98061.47;4184402;28;20048;-72
2024/02/10 06:35:13;;;;;;;6.30;2.30;;;7.90;99.90;;;7.23;100.00;98056.22;4185168;28;20021;-72
2024/02/10 06:37:14;;;;;;;12.45;2.70;;;7.90;99.90;;;7.23;100.00;98069.31;4183878;28;20033;-72
2024/02/10 06:39:15;;;;;;;10.15;2.03;;;7.90;99.90;;;7.18;100.00;98058.63;4170247;28;20080;-72
2024/02/10 06:41:16;;;;;;;6.35;1.88;;;7.90;99.90;;;7.20;100.00;98070.53;4185089;28;20029;-72
2024/02/10 06:43:17;;;;;;;14.15;2.42;;;7.90;99.90;;;7.20;100.00;98077.59;4183829;28;20024;-72
2024/02/10 06:45:23;;;;;;;10.13;2.65;;;7.90;99.90;;;7.18;100.00;98072.56;4184708;28;20033;-72
2024/02/10 06:47:24;;;;;;;13.25;2.35;;;7.90;99.90;;;7.19;100.00;98078.63;4167898;28;20021;-72
2024/02/10 06:49:25;;;;;;;8.40;2.13;;;7.90;99.90;;;7.18;100.00;98092.72;4184797;28;20045;-72
2024/02/10 06:51:26;;;;;;;8.15;2.75;;;7.90;99.90;;;7.16;100.00;98092.13;4183767;28;20025;-72
2024/02/10 06:53:28;;;;;;;10.10;3.17;;;7.80;99.90;;;7.14;100.00;98086.25;4184615;28;20033;-72
2024/02/10 06:55:29;;;;;;;16.63;2.92;;;7.80;99.90;;;7.14;100.00;98088.88;4183883;28;20021;-72
2024/02/10 06:57:31;;;;;;;6.70;2.85;;;7.80;99.90;;;7.13;100.00;98092.50;4183838;28;20032;-72
2024/02/10 06:59:32;;;;;;;13.23;2.08;;;7.80;99.90;;;7.15;100.00;98100.97;4184760;28;20028;-72
2024/02/10 07:01:34;;;;;;;14.52;2.90;;;7.80;99.90;;;7.14;100.00;98092.31;4183647;28;20021;-72
2024/02/10 07:03:35;;;;;;;10.18;2.58;;;7.80;99.90;;;7.14;100.00;98094.91;4183853;28;20107;-72
2024/02/10 07:05:39;;;;;;;14.38;2.65;;;7.80;99.90;;;7.13;100.00;98100.38;4183854;28;20029;-72
2024/02/10 07:07:42;;;;;;;20.45;2.63;;;7.80;99.90;;;7.09;100.00;98093.91;4184929;28;20037;-72
2024/02/10 07:09:43;;;;;;;8.73;3.08;;;7.80;99.90;;;7.09;100.00;98099.16;4184719;28;20104;-72
2024/02/10 07:11:43;;;;;;;11.63;2.42;;;7.80;99.90;;;7.07;100.00;98101.97;4184594;28;20037;-72
2024/02/10 07:13:44;;;;;;;16.30;2.90;;;7.70;99.90;;;7.04;100.00;98097.13;4184876;28;20108;-72
2024/02/10 07:15:45;;;;;;;12.13;3.17;;;7.70;99.90;;;7.03;100.00;98092.88;4184076;28;20033;-72
2024/02/10 07:17:49;;;;;;;9.40;2.08;;;7.80;99.90;;;7.05;100.00;98100.53;4168375;28;20039;-72
2024/02/10 07:19:51;;;;;;;11.27;2.67;;;7.70;99.90;;;7.04;100.00;98097.13;4168874;28;20104;-72
2024/02/10 07:21:52;;;;;;;12.93;2.40;;;7.70;99.90;;;7.04;100.00;98102.38;4183588;28;20100;-72
2024/02/10 07:23:53;;;;;;;11.88;2.78;;;7.70;99.90;;;6.99;100.00;98103.97;4184771;28;20079;-72
2024/02/10 07:25:53;;;;;;;12.70;2.42;;;7.70;99.90;;;7.00;100.00;98111.63;4184821;28;20044;-72
2024/02/10 07:28:00;;;;;;;17.95;2.50;;;7.70;99.90;;;7.01;100.00;98112.44;4185030;28;20021;-72
2024/02/10 07:30:03;;;;;;;18.15;2.67;;;7.60;99.90;;;7.01;100.00;98122.94;4184558;28;20029;-72
2024/02/10 07:32:07;;;;;;;14.77;4.22;;;7.70;99.90;;;7.01;100.00;98133.41;4184767;28;20373;-72
2024/02/10 07:34:08;;;;;;;17.05;2.83;;;7.70;99.90;;;6.95;100.00;98121.09;4186347;28;20089;-72
2024/02/10 07:36:09;;;;;;;15.10;3.08;;;7.70;99.90;;;6.98;100.00;98128.56;4187923;28;20028;-72
2024/02/10 07:38:09;;;;;;;15.30;2.45;;;7.60;99.90;;;6.97;100.00;98129.56;4187919;28;20054;-72
2024/02/10 07:40:11;;;;;;;10.35;3.53;;;7.70;99.90;;;6.99;100.00;98138.06;4187752;28;20024;-72
2024/02/10 07:42:13;;;;;;;18.30;2.90;;;7.70;99.90;;;7.02;100.00;98146.31;4187764;28;20456;-72
2024/02/10 07:44:14;;;;;;;10.88;2.70;;;7.60;99.90;;;7.01;100.00;98143.91;4187639;28;20021;-72
2024/02/10 07:46:16;;;;;;;9.10;2.55;;;7.70;99.90;;;7.01;100.00;98147.31;4187836;28;20075;-72
2024/02/10 07:48:18;;;;;;;10.75;3.80;;;7.70;99.90;;;6.97;100.00;98142.66;4186358;28;20037;-72
2024/02/10 07:50:20;;;;;;;15.55;3.05;;;7.70;99.90;;;6.98;100.00;98144.28;4182408;28;20024;-72
2024/02/10 07:52:22;;;;;;;17.85;3.70;;;7.70;99.90;;;7.00;100.00;98158.00;4175513;28;20084;-71
2024/02/10 07:54:23;;;;;;;13.00;3.55;;;7.70;99.90;;;7.00;100.00;98158.00;4184077;28;20416;-71
2024/02/10 07:56:28;;;;;;;18.13;3.35;;;7.60;99.90;;;6.99;100.00;98159.03;4186372;28;20033;-72
2024/02/10 07:58:29;;;;;;;17.50;3.38;;;7.60;99.90;;;6.97;100.00;98159.19;4187655;28;20053;-72
2024/02/10 08:00:32;;;;;;;11.05;3.00;;;7.60;99.90;;;6.95;100.00;98165.63;4186202;28;20033;-72
2024/02/10 08:02:33;;;;;;;18.00;4.55;;;7.60;99.90;;;6.95;100.00;98165.63;4186258;28;20070;-72
2024/02/10 08:04:34;;;;;;;15.38;3.40;;;7.60;99.90;;;6.91;100.00;98170.47;4187088;28;20021;-72
2024/02/10 08:06:35;;;;;;;13.77;2.50;;;7.60;99.90;;;6.87;100.00;98166.59;4185874;28;20043;-72
2024/02/10 08:08:36;;;;;;;9.55;2.72;;;7.60;99.90;;;6.89;100.00;98166.41;4186256;28;20596;-72
2024/02/10 08:10:37;;;;;;;15.45;3.40;;;7.60;99.90;;;6.87;100.00;98168.44;4187311;28;20033;-72
2024/02/10 08:12:38;;;;;;;13.82;3.20;;;7.50;99.90;;;6.87;100.00;98171.84;4186080;28;20029;-72
2024/02/10 08:14:39;;;;;;;11.70;2.67;;;7.50;99.90;;;6.84;100.00;98166.22;4187157;28;20035;-72
2024/02/10 08:16:40;;;;;;;11.73;2.65;;;7.50;99.90;;;6.90;100.00;98175.91;4185976;28;20021;-72
2024/02/10 08:18:41;;;;;;;14.65;3.35;;;7.50;99.90;;;6.88;100.00;98163.00;4187179;28;20036;-72
2024/02/10 08:20:43;;;;;;;9.85;2.13;;;7.50;99.90;;;6.90;100.00;98168.06;4168873;28;20035;-72
2024/02/10 08:22:47;;;;;;;11.65;2.35;;;7.50;99.90;;;6.91;100.00;98169.66;4178633;28;20021;-72
2024/02/10 08:24:49;;;;;;;20.85;2.97;;;7.50;99.90;;;6.91;100.00;98165.22;4187044;28;20577;-71
2024/02/10 08:26:50;;;;;;;17.52;3.58;;;7.60;99.90;;;6.94;100.00;98172.69;4185913;28;20033;-72
2024/02/10 08:28:51;;;;;;;18.60;4.85;;;7.60;99.90;;;6.93;100.00;98165.03;4186887;28;20078;-73
2024/02/10 08:30:53;;;;;;;14.68;3.72;;;7.60;99.90;;;6.95;100.00;98165.63;4168977;28;20033;-73
2024/02/10 08:32:56;;;;;;;18.15;4.15;;;7.60;99.90;;;6.93;100.00;98168.44;4179090;28;20028;-73
2024/02/10 08:35:00;;;;;;;16.60;4.05;;;7.50;99.90;;;6.94;100.00;98171.88;4169407;28;20544;-72